Time;durP1;ratioP1;P1;durP2;ratioP2;P2;SDS_P1;SDS_P2;PMS_P1;PMS_P2;Temp;Humidity;BMP_temperature;BMP_pressure;BME280_temperature;BME280_humidity;BME280_pressure;Samples;Min_cycle;Max_cycle;Signal;HPM_P1;HPM_P2
2022/04/05 00:01:14;;;;;;;2.97;1.40;;;;;;;;;;5041926;28;20021;-53
2022/04/05 00:03:40;;;;;;;3.97;1.42;;;;;;;;;;5038392;28;20399;-54
2022/04/05 00:06:06;;;;;;;3.08;1.38;;;;;;;;;;5046281;28;20411;-56
2022/04/05 00:08:32;;;;;;;3.05;1.52;;;;;;;;;;5038353;28;20052;-54
2022/04/05 00:10:58;;;;;;;3.15;1.40;;;;;;;;;;5043310;28;20399;-56
2022/04/05 00:13:24;;;;;;;3.35;1.60;;;;;;;;;;5040975;28;20029;-54
2022/04/05 00:15:50;;;;;;;3.63;1.45;;;;;;;;;;5043547;28;20025;-55
2022/04/05 00:18:16;;;;;;;4.15;1.48;;;;;;;;;;5038584;28;20846;-53
2022/04/05 00:20:43;;;;;;;3.55;1.55;;;;;;;;;;5042568;28;20462;-54
2022/04/05 00:23:09;;;;;;;2.95;1.50;;;;;;;;;;5040672;28;20021;-54
2022/04/05 00:25:35;;;;;;;2.75;1.52;;;;;;;;;;5044067;28;20017;-53
2022/04/05 00:28:02;;;;;;;3.72;1.50;;;;;;;;;;5043135;28;20064;-50
2022/04/05 00:30:28;;;;;;;4.15;1.63;;;;;;;;;;5040205;28;20045;-54
2022/04/05 00:32:54;;;;;;;1.95;1.30;;;;;;;;;;5040371;28;20100;-50
2022/04/05 00:35:21;;;;;;;3.13;1.50;;;;;;;;;;5041540;28;20124;-55
2022/04/05 00:37:48;;;;;;;3.15;1.40;;;;;;;;;;5042719;28;20055;-54
2022/04/05 00:40:14;;;;;;;2.75;1.50;;;;;;;;;;5039454;28;20068;-53
2022/04/05 00:42:40;;;;;;;2.30;1.33;;;;;;;;;;5039905;28;20048;-52
2022/04/05 00:45:07;;;;;;;4.30;1.45;;;;;;;;;;5037832;28;20067;-51
2022/04/05 00:47:34;;;;;;;3.30;1.35;;;;;;;;;;5045189;28;20028;-53
2022/04/05 00:50:01;;;;;;;3.67;1.30;;;;;;;;;;5033460;28;20041;-52
2022/04/05 00:52:27;;;;;;;2.53;1.30;;;;;;;;;;5046659;28;20096;-53
2022/04/05 00:54:54;;;;;;;2.70;1.10;;;;;;;;;;5048817;28;20025;-51
2022/04/05 00:57:21;;;;;;;3.45;1.30;;;;;;;;;;5048009;28;20108;-49
2022/04/05 00:59:49;;;;;;;2.75;1.30;;;;;;;;;;5048265;28;20059;-50
2022/04/05 01:02:16;;;;;;;2.53;1.30;;;;;;;;;;5048111;28;20029;-51
2022/04/05 01:04:43;;;;;;;2.70;1.40;;;;;;;;;;5048800;28;20035;-51
2022/04/05 01:07:11;;;;;;;2.13;1.23;;;;;;;;;;5045212;28;20545;-52
2022/04/05 01:09:38;;;;;;;2.95;1.52;;;;;;;;;;5048948;28;20555;-54
2022/04/05 01:12:08;;;;;;;5.00;1.42;;;;;;;;;;5049206;28;20040;-53
2022/04/05 01:14:34;;;;;;;3.38;1.30;;;;;;;;;;5042311;28;20029;-51
2022/04/05 01:17:00;;;;;;;2.63;1.50;;;;;;;;;;5035593;28;20025;-54
2022/04/05 01:19:27;;;;;;;3.30;1.15;;;;;;;;;;5048500;28;20033;-52
2022/04/05 01:21:53;;;;;;;2.95;1.20;;;;;;;;;;5048578;28;20484;-51
2022/04/05 01:24:19;;;;;;;2.83;1.60;;;;;;;;;;5048639;28;20021;-53
2022/04/05 01:26:50;;;;;;;2.95;1.40;;;;;;;;;;5048130;28;20036;-45
2022/04/05 01:29:17;;;;;;;2.03;1.25;;;;;;;;;;5041598;28;20103;-47
2022/04/05 01:31:44;;;;;;;2.00;1.40;;;;;;;;;;5028488;28;20034;-51
2022/04/05 01:34:11;;;;;;;2.35;1.10;;;;;;;;;;5046498;28;20025;-49
2022/04/05 01:36:41;;;;;;;2.03;1.15;;;;;;;;;;5048392;28;20036;-50
2022/04/05 01:39:08;;;;;;;2.75;1.20;;;;;;;;;;5048388;28;20119;-53
2022/04/05 01:41:35;;;;;;;3.40;1.30;;;;;;;;;;5047922;28;20399;-50
2022/04/05 01:44:02;;;;;;;2.15;1.15;;;;;;;;;;5046491;28;20519;-52
2022/04/05 01:46:28;;;;;;;2.10;1.10;;;;;;;;;;5045889;28;20111;-53
2022/04/05 01:48:54;;;;;;;3.63;1.20;;;;;;;;;;5048225;28;20079;-47
2022/04/05 01:51:20;;;;;;;2.10;1.00;;;;;;;;;;5048159;28;20087;-51
2022/04/05 01:53:46;;;;;;;3.13;1.15;;;;;;;;;;5047230;28;20028;-50
2022/04/05 01:56:12;;;;;;;2.42;1.17;;;;;;;;;;5048059;28;20039;-48
2022/04/05 01:58:38;;;;;;;4.43;1.27;;;;;;;;;;5047784;28;20028;-49
2022/04/05 02:01:04;;;;;;;3.50;1.50;;;;;;;;;;5043521;28;20884;-48
2022/04/05 02:03:31;;;;;;;2.30;0.93;;;;;;;;;;5034148;28;20021;-48
2022/04/05 02:05:58;;;;;;;1.63;0.98;;;;;;;;;;5048373;28;20025;-49
2022/04/05 02:08:24;;;;;;;2.20;1.10;;;;;;;;;;5047392;28;20033;-48
2022/04/05 02:10:52;;;;;;;2.50;1.15;;;;;;;;;;5047824;28;20037;-50
2022/04/05 02:13:17;;;;;;;2.13;1.17;;;;;;;;;;5047183;28;20045;-50
2022/04/05 02:15:44;;;;;;;2.20;1.10;;;;;;;;;;5046952;28;20471;-52
2022/04/05 02:18:10;;;;;;;2.58;1.33;;;;;;;;;;5047335;28;20029;-53
2022/04/05 02:20:36;;;;;;;2.50;1.20;;;;;;;;;;5047488;28;20064;-52
2022/04/05 02:23:02;;;;;;;2.10;1.13;;;;;;;;;;5047603;28;20487;-50
2022/04/05 02:25:30;;;;;;;2.75;1.25;;;;;;;;;;5047132;28;20025;-53
2022/04/05 02:27:57;;;;;;;4.82;1.40;;;;;;;;;;5047306;28;20036;-51
2022/04/05 02:30:23;;;;;;;1.85;1.10;;;;;;;;;;5047383;28;20120;-47
2022/04/05 02:32:49;;;;;;;1.85;0.90;;;;;;;;;;5047503;28;20471;-54
2022/04/05 02:35:15;;;;;;;2.47;1.20;;;;;;;;;;5047613;28;20029;-47
2022/04/05 02:37:41;;;;;;;2.40;1.20;;;;;;;;;;5047679;28;20053;-46
2022/04/05 02:40:07;;;;;;;2.35;1.23;;;;;;;;;;5047346;28;20091;-47
2022/04/05 02:42:33;;;;;;;2.22;0.90;;;;;;;;;;5047007;28;20052;-49
2022/04/05 02:44:59;;;;;;;1.90;0.93;;;;;;;;;;5046991;28;20060;-52
2022/04/05 02:47:26;;;;;;;3.15;1.20;;;;;;;;;;5045593;28;20036;-48
2022/04/05 02:49:53;;;;;;;2.35;1.10;;;;;;;;;;5047370;28;20044;-50
2022/04/05 02:52:18;;;;;;;2.20;1.10;;;;;;;;;;5046806;28;20028;-52
2022/04/05 02:54:45;;;;;;;2.72;1.13;;;;;;;;;;5047601;28;20021;-50
2022/04/05 02:57:12;;;;;;;1.98;1.08;;;;;;;;;;5047480;28;20486;-48
2022/04/05 02:59:39;;;;;;;2.88;1.02;;;;;;;;;;5047721;28;20043;-50
2022/04/05 03:02:05;;;;;;;1.70;0.80;;;;;;;;;;5046506;28;20032;-52
2022/04/05 03:04:35;;;;;;;2.58;1.15;;;;;;;;;;5047367;28;20064;-52
2022/04/05 03:07:01;;;;;;;1.40;0.85;;;;;;;;;;5047404;28;20029;-52
2022/04/05 03:09:27;;;;;;;2.25;0.88;;;;;;;;;;5047273;28;20028;-51
2022/04/05 03:11:55;;;;;;;3.90;1.23;;;;;;;;;;5047094;28;20033;-47
2022/04/05 03:14:21;;;;;;;2.67;1.08;;;;;;;;;;5047098;28;20042;-51
2022/04/05 03:16:47;;;;;;;3.47;1.17;;;;;;;;;;5042080;28;20029;-51
2022/04/05 03:19:13;;;;;;;1.83;1.00;;;;;;;;;;5047135;28;20571;-49
2022/04/05 03:21:39;;;;;;;1.33;0.80;;;;;;;;;;5047345;28;20033;-52
2022/04/05 03:24:06;;;;;;;2.30;1.15;;;;;;;;;;5047158;28;20146;-51
2022/04/05 03:26:32;;;;;;;3.75;1.30;;;;;;;;;;5050075;28;20036;-50
2022/04/05 03:28:59;;;;;;;2.33;0.93;;;;;;;;;;5050381;28;20132;-49
2022/04/05 03:31:26;;;;;;;2.47;1.00;;;;;;;;;;5046176;28;20112;-52
2022/04/05 03:33:53;;;;;;;2.95;1.33;;;;;;;;;;5050635;28;20059;-53
2022/04/05 03:36:19;;;;;;;3.35;1.33;;;;;;;;;;5050701;28;20541;-49
2022/04/05 03:38:45;;;;;;;2.70;1.08;;;;;;;;;;5050635;28;20029;-49
2022/04/05 03:41:11;;;;;;;2.30;1.20;;;;;;;;;;5050132;28;20064;-51
2022/04/05 03:43:37;;;;;;;2.35;1.13;;;;;;;;;;5050206;28;20064;-50
2022/04/05 03:46:03;;;;;;;2.33;1.38;;;;;;;;;;5049179;28;20459;-50
2022/04/05 03:48:29;;;;;;;2.55;1.20;;;;;;;;;;5049965;28;20531;-46
2022/04/05 03:50:55;;;;;;;2.33;0.95;;;;;;;;;;5049991;28;20037;-52
2022/04/05 03:53:21;;;;;;;1.58;0.88;;;;;;;;;;5049887;28;20527;-50
2022/04/05 03:55:48;;;;;;;2.80;1.23;;;;;;;;;;5050612;28;20033;-50
2022/04/05 03:58:15;;;;;;;2.28;1.00;;;;;;;;;;5050734;28;20060;-50
2022/04/05 04:00:41;;;;;;;2.42;1.05;;;;;;;;;;5041544;28;20033;-49
2022/04/05 04:03:07;;;;;;;1.77;0.85;;;;;;;;;;5041579;28;20021;-49
2022/04/05 04:05:33;;;;;;;1.80;1.13;;;;;;;;;;5050650;28;20052;-47
2022/04/05 04:07:59;;;;;;;2.92;1.55;;;;;;;;;;5048564;28;20559;-49
2022/04/05 04:10:25;;;;;;;2.22;0.93;;;;;;;;;;5050004;28;20068;-50
2022/04/05 04:12:51;;;;;;;1.45;0.70;;;;;;;;;;5049885;28;20032;-49
2022/04/05 04:15:17;;;;;;;1.80;1.00;;;;;;;;;;5049396;28;20036;-49
2022/04/05 04:17:43;;;;;;;2.95;0.95;;;;;;;;;;5049407;28;20032;-48
2022/04/05 04:20:09;;;;;;;3.63;0.95;;;;;;;;;;5050057;28;20453;-49
2022/04/05 04:22:35;;;;;;;1.70;0.98;;;;;;;;;;5049509;28;20562;-49
2022/04/05 04:25:01;;;;;;;2.92;1.10;;;;;;;;;;5049622;28;20546;-52
2022/04/05 04:27:27;;;;;;;1.83;1.00;;;;;;;;;;5049820;28;20040;-53
2022/04/05 04:29:53;;;;;;;2.03;1.20;;;;;;;;;;5046390;28;20045;-51
2022/04/05 04:32:20;;;;;;;2.15;1.00;;;;;;;;;;5040701;28;20083;-51
2022/04/05 04:34:46;;;;;;;2.08;0.93;;;;;;;;;;5049318;28;20036;-53
2022/04/05 04:37:13;;;;;;;3.72;1.05;;;;;;;;;;5048742;28;20479;-47
2022/04/05 04:39:39;;;;;;;1.35;0.80;;;;;;;;;;5045574;28;20053;-51
2022/04/05 04:42:06;;;;;;;4.45;1.50;;;;;;;;;;5047316;28;20025;-49
2022/04/05 04:44:32;;;;;;;2.08;0.90;;;;;;;;;;5046644;28;20021;-51
2022/04/05 04:46:59;;;;;;;2.30;1.00;;;;;;;;;;5045947;28;20060;-49
2022/04/05 04:49:25;;;;;;;2.50;0.98;;;;;;;;;;5046961;28;20025;-49
2022/04/05 04:51:51;;;;;;;4.45;1.13;;;;;;;;;;5040204;28;20025;-48
2022/04/05 04:54:18;;;;;;;4.20;1.13;;;;;;;;;;5041501;28;20426;-53
2022/04/05 04:56:44;;;;;;;1.70;0.90;;;;;;;;;;5048657;28;20021;-54
2022/04/05 04:59:10;;;;;;;4.20;1.02;;;;;;;;;;5048859;28;20841;-50
2022/04/05 05:01:36;;;;;;;2.00;0.90;;;;;;;;;;5037209;28;20148;-48
2022/04/05 05:04:02;;;;;;;3.55;1.17;;;;;;;;;;5048661;28;20036;-48
2022/04/05 05:06:28;;;;;;;13.05;1.40;;;;;;;;;;5048526;28;20063;-52
2022/04/05 05:08:54;;;;;;;3.90;1.10;;;;;;;;;;5033827;28;20067;-52
2022/04/05 05:11:20;;;;;;;4.72;1.38;;;;;;;;;;5033431;28;20064;-50
2022/04/05 05:13:46;;;;;;;10.50;2.13;;;;;;;;;;5029322;28;20041;-51
2022/04/05 05:16:12;;;;;;;9.15;2.20;;;;;;;;;;5040476;28;20087;-50
2022/04/05 05:18:38;;;;;;;7.57;2.58;;;;;;;;;;5047607;28;20037;-51
2022/04/05 05:21:04;;;;;;;6.78;3.67;;;;;;;;;;5043897;28;20048;-49
2022/04/05 05:23:30;;;;;;;6.97;4.43;;;;;;;;;;5038502;28;20017;-52
2022/04/05 05:25:57;;;;;;;7.57;5.28;;;;;;;;;;5041098;28;20028;-52
2022/04/05 05:28:23;;;;;;;7.43;3.90;;;;;;;;;;5045989;28;20079;-50
2022/04/05 05:30:49;;;;;;;5.93;4.13;;;;;;;;;;5048189;28;20064;-49
2022/04/05 05:33:15;;;;;;;9.10;4.32;;;;;;;;;;5048511;28;20054;-49
2022/04/05 05:35:42;;;;;;;12.15;4.75;;;;;;;;;;5046872;28;20028;-54
2022/04/05 05:38:08;;;;;;;13.38;4.97;;;;;;;;;;5043197;28;20029;-47
2022/04/05 05:40:34;;;;;;;13.82;4.38;;;;;;;;;;5047778;28;20021;-53
2022/04/05 05:43:04;;;;;;;10.20;4.20;;;;;;;;;;5047723;28;20017;-49
2022/04/05 05:45:32;;;;;;;10.38;4.25;;;;;;;;;;5047871;28;20131;-50
2022/04/05 05:47:59;;;;;;;8.65;3.75;;;;;;;;;;5047825;28;20021;-50
2022/04/05 05:50:25;;;;;;;7.07;3.80;;;;;;;;;;5029276;28;20034;-49
2022/04/05 05:52:52;;;;;;;9.48;4.30;;;;;;;;;;5047895;28;20033;-53
2022/04/05 05:55:19;;;;;;;9.00;4.45;;;;;;;;;;5045003;28;20787;-53
2022/04/05 05:57:46;;;;;;;7.63;4.20;;;;;;;;;;5044074;28;20471;-53
2022/04/05 06:00:17;;;;;;;6.22;3.35;;;;;;;;;;5048220;28;20029;-53
2022/04/05 06:02:44;;;;;;;8.05;3.70;;;;;;;;;;5048073;28;20676;-49
2022/04/05 06:05:10;;;;;;;6.65;3.83;;;;;;;;;;5047394;28;20033;-47
2022/04/05 06:07:36;;;;;;;6.40;3.20;;;;;;;;;;5046821;28;20056;-54
2022/04/05 06:10:03;;;;;;;7.78;2.85;;;;;;;;;;5047645;28;20064;-50
2022/04/05 06:12:29;;;;;;;6.40;3.17;;;;;;;;;;5046589;28;20032;-49
2022/04/05 06:14:55;;;;;;;10.88;2.92;;;;;;;;;;5046153;28;20064;-48
2022/04/05 06:17:21;;;;;;;11.48;2.88;;;;;;;;;;5047511;28;20546;-50
2022/04/05 06:19:47;;;;;;;4.97;2.95;;;;;;;;;;5047253;28;20087;-50
2022/04/05 06:22:14;;;;;;;5.18;2.65;;;;;;;;;;5047481;28;20035;-52
2022/04/05 06:24:40;;;;;;;6.65;3.17;;;;;;;;;;5044998;28;20375;-49
2022/04/05 06:27:06;;;;;;;5.20;2.83;;;;;;;;;;5043926;28;20434;-49
2022/04/05 06:29:33;;;;;;;6.10;2.83;;;;;;;;;;5040694;28;20063;-52
2022/04/05 06:32:00;;;;;;;6.75;2.38;;;;;;;;;;5047203;28;20035;-51
2022/04/05 06:34:26;;;;;;;6.35;2.63;;;;;;;;;;5047895;28;20025;-53
2022/04/05 06:36:53;;;;;;;5.43;2.00;;;;;;;;;;5041043;28;20655;-52
2022/04/05 06:39:19;;;;;;;11.60;3.17;;;;;;;;;;5040444;28;20380;-51
2022/04/05 06:41:45;;;;;;;14.63;2.85;;;;;;;;;;5041583;28;20513;-51
2022/04/05 06:44:11;;;;;;;7.68;2.35;;;;;;;;;;5045304;28;20025;-53
2022/04/05 06:46:37;;;;;;;12.30;2.28;;;;;;;;;;5047722;28;20144;-52
2022/04/05 06:49:03;;;;;;;13.02;3.00;;;;;;;;;;5047518;28;20047;-51
2022/04/05 06:51:30;;;;;;;17.63;2.92;;;;;;;;;;5047437;28;20036;-51
2022/04/05 06:53:57;;;;;;;19.20;2.83;;;;;;;;;;5047831;28;20108;-50
2022/04/05 06:56:25;;;;;;;12.80;2.55;;;;;;;;;;5046268;28;20108;-50
2022/04/05 06:58:51;;;;;;;10.68;2.10;;;;;;;;;;5045274;28;20068;-51
2022/04/05 07:01:17;;;;;;;11.65;2.85;;;;;;;;;;5043622;28;20028;-49
2022/04/05 07:03:43;;;;;;;11.90;2.60;;;;;;;;;;5044190;28;20690;-52
2022/04/05 07:06:09;;;;;;;10.15;2.22;;;;;;;;;;5043177;28;20028;-51
2022/04/05 07:08:36;;;;;;;8.75;1.95;;;;;;;;;;5043601;28;20032;-52
2022/04/05 07:11:02;;;;;;;11.07;2.42;;;;;;;;;;5050807;28;20154;-47
2022/04/05 07:13:30;;;;;;;16.40;2.70;;;;;;;;;;5049459;28;20121;-53
2022/04/05 07:15:56;;;;;;;9.63;1.70;;;;;;;;;;5048487;28;20406;-52
2022/04/05 07:18:22;;;;;;;6.85;2.00;;;;;;;;;;5050209;28;20119;-47
2022/04/05 07:20:48;;;;;;;14.75;2.10;;;;;;;;;;5049887;28;20440;-51
2022/04/05 07:23:17;;;;;;;16.67;3.25;;;;;;;;;;5049085;28;20554;-49
2022/04/05 07:25:43;;;;;;;10.55;2.47;;;;;;;;;;5046427;28;20100;-49
2022/04/05 07:28:10;;;;;;;15.20;2.20;;;;;;;;;;5049719;28;20098;-49
2022/04/05 07:30:36;;;;;;;10.93;3.05;;;;;;;;;;5046363;28;20037;-52
2022/04/05 07:33:02;;;;;;;20.20;2.05;;;;;;;;;;5042638;28;20025;-53
2022/04/05 07:35:28;;;;;;;12.18;2.30;;;;;;;;;;5042961;28;20047;-51
2022/04/05 07:37:54;;;;;;;26.27;3.80;;;;;;;;;;5047760;28;20490;-51
2022/04/05 07:40:20;;;;;;;16.33;3.78;;;;;;;;;;5049656;28;20041;-50
2022/04/05 07:42:47;;;;;;;10.70;2.90;;;;;;;;;;5040184;28;20022;-54
2022/04/05 07:45:14;;;;;;;19.77;3.95;;;;;;;;;;5048181;28;20037;-49
2022/04/05 07:47:40;;;;;;;25.88;3.45;;;;;;;;;;5049618;28;20027;-50
2022/04/05 07:50:07;;;;;;;35.10;4.00;;;;;;;;;;5050274;28;20041;-51
2022/04/05 07:52:33;;;;;;;33.28;4.03;;;;;;;;;;5041304;28;20112;-50
2022/04/05 07:54:59;;;;;;;31.20;4.20;;;;;;;;;;5040248;28;20311;-52
2022/04/05 07:57:25;;;;;;;34.25;4.20;;;;;;;;;;5043196;28;20021;-50
2022/04/05 07:59:51;;;;;;;25.15;2.80;;;;;;;;;;5048317;28;20033;-50
2022/04/05 08:02:18;;;;;;;24.20;3.33;;;;;;;;;;5048248;28;20036;-51
2022/04/05 08:04:45;;;;;;;18.88;3.25;;;;;;;;;;5039647;28;20036;-51
2022/04/05 08:07:11;;;;;;;15.82;2.42;;;;;;;;;;5047725;28;20152;-49
2022/04/05 08:09:37;;;;;;;18.88;3.80;;;;;;;;;;5048216;28;20120;-51
2022/04/05 08:12:03;;;;;;;20.08;2.95;;;;;;;;;;5049738;28;20452;-49
2022/04/05 08:14:31;;;;;;;43.88;4.22;;;;;;;;;;5049735;28;20036;-49
2022/04/05 08:16:57;;;;;;;28.25;2.70;;;;;;;;;;5049103;28;20506;-51
2022/04/05 08:19:23;;;;;;;25.15;3.53;;;;;;;;;;5047691;28;20041;-49
2022/04/05 08:21:49;;;;;;;16.65;2.30;;;;;;;;;;5049366;28;20025;-49
2022/04/05 08:24:17;;;;;;;15.68;3.25;;;;;;;;;;5036330;28;20535;-50
2022/04/05 08:26:43;;;;;;;15.60;2.47;;;;;;;;;;5039497;28;20032;-48
2022/04/05 08:29:09;;;;;;;22.27;2.53;;;;;;;;;;5045795;28;20139;-50
2022/04/05 08:31:36;;;;;;;22.67;2.75;;;;;;;;;;5048906;28;20040;-51
2022/04/05 08:34:02;;;;;;;15.07;2.58;;;;;;;;;;5049405;28;20510;-51
2022/04/05 08:36:28;;;;;;;14.20;2.78;;;;;;;;;;5049308;28;20132;-48
2022/04/05 08:38:54;;;;;;;13.15;2.90;;;;;;;;;;5049866;28;20104;-48
2022/04/05 08:41:21;;;;;;;14.90;2.47;;;;;;;;;;5048992;28;20549;-50
2022/04/05 08:43:51;;;;;;;14.23;2.88;;;;;;;;;;5047592;28;20021;-52
2022/04/05 08:46:18;;;;;;;20.48;2.75;;;;;;;;;;5049210;28;20037;-51
2022/04/05 08:48:46;;;;;;;16.25;2.03;;;;;;;;;;5049414;28;20021;-48
2022/04/05 08:51:12;;;;;;;14.63;2.20;;;;;;;;;;5047744;28;20051;-48
2022/04/05 08:53:39;;;;;;;9.05;2.08;;;;;;;;;;5039934;28;20116;-51
2022/04/05 08:56:05;;;;;;;13.23;2.35;;;;;;;;;;5049383;28;20039;-52
2022/04/05 08:58:31;;;;;;;13.32;2.08;;;;;;;;;;5045752;28;20108;-51
2022/04/05 09:00:58;;;;;;;11.93;2.42;;;;;;;;;;5048906;28;20033;-50
2022/04/05 09:03:23;;;;;;;13.27;1.92;;;;;;;;;;5049189;28;20021;-51
2022/04/05 09:05:50;;;;;;;11.25;1.80;;;;;;;;;;5048554;28;20039;-50
2022/04/05 09:08:19;;;;;;;13.93;1.92;;;;;;;;;;5048798;28;20033;-51
2022/04/05 09:10:50;;;;;;;7.13;1.95;;;;;;;;;;5045337;28;20048;-51
2022/04/05 09:13:16;;;;;;;;;;;;;;;;;;5049350;28;20730;-51
2022/04/05 09:15:42;;;;;;;10.23;2.03;;;;;;;;;;5048328;28;20011;-50
2022/04/05 09:18:08;;;;;;;6.90;1.75;;;;;;;;;;5048030;28;20265;-49
2022/04/05 09:20:45;;;;;;;7.65;1.95;;;;;;;;;;5048634;28;20029;-52
2022/04/05 09:23:24;;;;;;;5.18;1.67;;;;;;;;;;5047534;28;20040;-53
2022/04/05 09:26:00;;;;;;;11.70;2.30;;;;;;;;;;5036465;28;20060;-52
2022/04/05 09:28:27;;;;;;;6.70;1.83;;;;;;;;;;5035188;28;20057;-49
2022/04/05 09:30:56;;;;;;;7.45;2.17;;;;;;;;;;5046582;28;20132;-48
2022/04/05 09:33:23;;;;;;;4.43;1.60;;;;;;;;;;5048109;28;20021;-53
2022/04/05 09:35:53;;;;;;;8.20;1.50;;;;;;;;;;5048505;28;20036;-50
2022/04/05 09:38:20;;;;;;;;;;;;;;;;;;5048888;28;20029;-52
2022/04/05 09:40:52;;;;;;;5.70;1.45;;;;;;;;;;5041069;28;19945;-52
2022/04/05 09:43:18;;;;;;;7.53;1.95;;;;;;;;;;5031648;28;20017;-52
2022/04/05 09:45:48;;;;;;;7.13;1.77;;;;;;;;;;5048388;28;20025;-51
2022/04/05 09:48:24;;;;;;;7.45;2.28;;;;;;;;;;5048128;28;20033;-52
2022/04/05 09:51:06;;;;;;;6.63;1.60;;;;;;;;;;5046562;28;20471;-52
2022/04/05 09:53:39;;;;;;;7.05;1.90;;;;;;;;;;5047356;28;20029;-50
2022/04/05 09:56:05;;;;;;;8.88;1.73;;;;;;;;;;5046331;28;20033;-50
2022/04/05 09:58:31;;;;;;;6.50;1.60;;;;;;;;;;5048060;28;20033;-51
2022/04/05 10:01:06;;;;;;;6.05;1.63;;;;;;;;;;5048147;28;20040;-53
2022/04/05 10:03:32;;;;;;;3.58;1.60;;;;;;;;;;5048310;28;20054;-50
2022/04/05 10:05:58;;;;;;;5.82;1.80;;;;;;;;;;5047571;28;20107;-52
2022/04/05 10:08:24;;;;;;;5.82;1.40;;;;;;;;;;5048254;28;20029;-54
2022/04/05 10:10:51;;;;;;;6.00;1.20;;;;;;;;;;5042020;28;20033;-52
2022/04/05 10:13:17;;;;;;;4.35;1.30;;;;;;;;;;5044702;28;20029;-53
2022/04/05 10:15:47;;;;;;;5.22;1.30;;;;;;;;;;5047767;28;20094;-49
2022/04/05 10:18:14;;;;;;;5.18;1.75;;;;;;;;;;5047669;28;20025;-51
2022/04/05 10:20:40;;;;;;;5.05;1.65;;;;;;;;;;5047681;28;20120;-53
2022/04/05 10:23:07;;;;;;;5.40;1.45;;;;;;;;;;5044235;28;20521;-50
2022/04/05 10:25:34;;;;;;;4.13;1.40;;;;;;;;;;5047709;28;20021;-51
2022/04/05 10:28:00;;;;;;;4.82;1.30;;;;;;;;;;5047346;28;20111;-53
2022/04/05 10:30:43;;;;;;;5.43;1.33;;;;;;;;;;5046974;28;20499;-54
2022/04/05 10:33:27;;;;;;;5.38;1.50;;;;;;;;;;5047690;28;20028;-52
2022/04/05 10:36:00;;;;;;;10.95;2.22;;;;;;;;;;5049461;28;20043;-52
2022/04/05 10:38:27;;;;;;;3.92;1.55;;;;;;;;;;5050239;28;20033;-52
2022/04/05 10:41:13;;;;;;;3.35;1.27;;;;;;;;;;5051400;28;20036;-52
2022/04/05 10:43:39;;;;;;;6.88;1.50;;;;;;;;;;5043382;28;20394;-53
2022/04/05 10:46:05;;;;;;;5.05;1.65;;;;;;;;;;5051497;28;20028;-49
2022/04/05 10:48:31;;;;;;;5.18;1.80;;;;;;;;;;5051339;28;20064;-52
2022/04/05 10:51:00;;;;;;;6.68;1.67;;;;;;;;;;5051380;28;20399;-52
2022/04/05 10:53:32;;;;;;;6.30;1.65;;;;;;;;;;5050986;28;20033;-51
2022/04/05 10:56:04;;;;;;;7.63;1.40;;;;;;;;;;5051270;28;20089;-48
2022/04/05 10:58:30;;;;;;;8.73;1.73;;;;;;;;;;5050654;28;20098;-52
2022/04/05 11:01:16;;;;;;;4.63;1.30;;;;;;;;;;5044209;28;20059;-50
2022/04/05 11:03:45;;;;;;;7.25;2.10;;;;;;;;;;5040407;28;20029;-53
2022/04/05 11:06:11;;;;;;;6.93;2.13;;;;;;;;;;5051435;28;20059;-53
2022/04/05 11:08:37;;;;;;;6.22;1.98;;;;;;;;;;5050505;28;20483;-51
2022/04/05 11:11:08;;;;;;;6.57;2.15;;;;;;;;;;5044460;28;20052;-52
2022/04/05 11:13:34;;;;;;;;;;;;;;;;;;5044733;28;20104;-53
2022/04/05 11:16:00;;;;;;;5.75;1.58;;;;;;;;;;5047136;28;19986;-51
2022/04/05 11:18:34;;;;;;;6.75;1.40;;;;;;;;;;5050637;28;20025;-50
2022/04/05 11:21:00;;;;;;;7.68;2.20;;;;;;;;;;5050593;28;20052;-52
2022/04/05 11:23:46;;;;;;;9.88;1.67;;;;;;;;;;5050322;28;20558;-53
2022/04/05 11:26:22;;;;;;;5.07;1.35;;;;;;;;;;5050999;28;20021;-51
2022/04/05 11:28:48;;;;;;;5.85;1.65;;;;;;;;;;5049851;28;20045;-51
2022/04/05 11:31:26;;;;;;;4.95;1.55;;;;;;;;;;5035467;28;20072;-49
2022/04/05 11:33:53;;;;;;;4.05;1.38;;;;;;;;;;5047583;28;20069;-48
2022/04/05 11:36:22;;;;;;;6.30;1.55;;;;;;;;;;5049785;28;20040;-56
2022/04/05 11:38:53;;;;;;;5.43;1.45;;;;;;;;;;5049746;28;20131;-53
2022/04/05 11:41:25;;;;;;;5.78;1.70;;;;;;;;;;5049454;28;20078;-51
2022/04/05 11:43:53;;;;;;;6.50;2.08;;;;;;;;;;5044206;28;20028;-52
2022/04/05 11:46:20;;;;;;;4.93;2.20;;;;;;;;;;5048034;28;20076;-49
2022/04/05 11:48:50;;;;;;;5.70;1.70;;;;;;;;;;5049285;28;20048;-49
2022/04/05 11:51:17;;;;;;;5.88;1.60;;;;;;;;;;5049358;28;20048;-48
2022/04/05 11:53:44;;;;;;;3.78;1.48;;;;;;;;;;5049039;28;20380;-51
2022/04/05 11:56:17;;;;;;;4.53;1.60;;;;;;;;;;5049353;28;20025;-43
2022/04/05 11:58:46;;;;;;;7.20;1.70;;;;;;;;;;5047404;28;20044;-52
2022/04/05 12:01:13;;;;;;;2.92;1.30;;;;;;;;;;5042951;28;20111;-51
2022/04/05 12:03:45;;;;;;;6.65;1.70;;;;;;;;;;5048747;28;20025;-51
2022/04/05 12:06:13;;;;;;;8.85;1.73;;;;;;;;;;5049099;28;20029;-52
2022/04/05 12:08:39;;;;;;;4.93;1.75;;;;;;;;;;5049141;28;20048;-51
2022/04/05 12:11:06;;;;;;;5.40;1.42;;;;;;;;;;5048367;28;20437;-50
2022/04/05 12:13:35;;;;;;;3.50;1.70;;;;;;;;;;5047392;28;20029;-48
2022/04/05 12:16:04;;;;;;;7.22;1.88;;;;;;;;;;5048681;28;20074;-50
2022/04/05 12:18:30;;;;;;;4.60;1.77;;;;;;;;;;5048762;28;20032;-49
2022/04/05 12:21:01;;;;;;;5.93;1.63;;;;;;;;;;5049205;28;20033;-50
2022/04/05 12:23:27;;;;;;;;;;;;;;;;;;5046981;28;20029;-51
2022/04/05 12:26:03;;;;;;;4.85;1.70;;;;;;;;;;5045881;28;19908;-50
2022/04/05 12:28:29;;;;;;;5.90;2.30;;;;;;;;;;5012854;28;1023670;-50
2022/04/05 12:31:03;;;;;;;6.00;2.10;;;;;;;;;;5049177;28;20083;-47
2022/04/05 12:33:29;;;;;;;5.13;1.50;;;;;;;;;;5050742;28;20033;-52
2022/04/05 12:35:56;;;;;;;4.85;2.05;;;;;;;;;;5048990;28;20056;-52
2022/04/05 12:38:21;;;;;;;5.40;1.58;;;;;;;;;;5049727;28;20166;-51
2022/04/05 12:40:47;;;;;;;7.63;1.75;;;;;;;;;;5048293;28;20125;-51
2022/04/05 12:43:15;;;;;;;3.15;1.35;;;;;;;;;;5048835;28;20429;-53
2022/04/05 12:45:41;;;;;;;5.13;1.60;;;;;;;;;;5048394;28;20035;-51
2022/04/05 12:48:11;;;;;;;4.65;1.73;;;;;;;;;;5045326;28;20037;-48
2022/04/05 12:50:55;;;;;;;6.20;1.27;;;;;;;;;;5047745;28;20487;-49
2022/04/05 12:53:30;;;;;;;3.67;1.63;;;;;;;;;;5039689;28;20120;-51
2022/04/05 12:55:58;;;;;;;5.88;1.20;;;;;;;;;;5042057;28;20039;-52
2022/04/05 12:58:34;;;;;;;5.80;1.70;;;;;;;;;;5047533;28;20025;-52
2022/04/05 13:01:00;;;;;;;6.45;1.30;;;;;;;;;;5048745;28;20032;-49
2022/04/05 13:03:31;;;;;;;10.02;2.25;;;;;;;;;;5048508;28;20078;-52
2022/04/05 13:08:43;;;;;;;3.60;1.30;;;;;;;;;;5039519;28;20035;-54
2022/04/05 13:11:25;;;;;;;4.68;1.27;;;;;;;;;;5040811;28;20033;-52
2022/04/05 13:14:01;;;;;;;5.43;1.30;;;;;;;;;;5048759;28;20029;-54
2022/04/05 13:16:28;;;;;;;5.70;1.42;;;;;;;;;;5040476;28;20048;-53
2022/04/05 13:18:54;;;;;;;4.78;2.20;;;;;;;;;;5038650;28;20356;-54
2022/04/05 13:21:21;;;;;;;4.70;1.63;;;;;;;;;;5038444;28;20045;-52
2022/04/05 13:24:04;;;;;;;7.03;1.52;;;;;;;;;;5042722;28;20036;-53
2022/04/05 13:26:30;;;;;;;4.93;1.45;;;;;;;;;;5048779;28;20108;-53
2022/04/05 13:29:02;;;;;;;3.83;1.65;;;;;;;;;;5048269;28;20797;-52
2022/04/05 13:31:32;;;;;;;6.53;3.75;;;;;;;;;;5048189;28;20740;-54
2022/04/05 13:33:58;;;;;;;7.88;4.03;;;;;;;;;;5048053;28;20027;-54
2022/04/05 13:36:24;;;;;;;11.05;4.63;;;;;;;;;;5048212;28;20103;-50
2022/04/05 13:38:50;;;;;;;6.97;3.58;;;;;;;;;;5048293;28;20096;-52
2022/04/05 13:41:17;;;;;;;13.15;3.58;;;;;;;;;;5044157;28;20549;-54
2022/04/05 13:43:43;;;;;;;9.40;2.83;;;;;;;;;;5048063;28;20021;-51
2022/04/05 13:46:09;;;;;;;9.23;3.00;;;;;;;;;;5047948;28;20700;-49
2022/04/05 13:48:35;;;;;;;9.00;2.90;;;;;;;;;;5047080;28;20021;-53
2022/04/05 13:51:02;;;;;;;8.68;2.70;;;;;;;;;;5040239;28;20495;-49
2022/04/05 13:53:28;;;;;;;8.15;2.33;;;;;;;;;;5041930;28;20053;-53
2022/04/05 13:55:56;;;;;;;7.43;3.25;;;;;;;;;;5029210;28;20836;-53
2022/04/05 13:58:22;;;;;;;7.28;2.58;;;;;;;;;;5040981;28;20067;-54
2022/04/05 14:00:48;;;;;;;7.63;2.83;;;;;;;;;;5047206;28;20820;-54
2022/04/05 14:03:16;;;;;;;8.55;3.10;;;;;;;;;;5046340;28;20602;-54
2022/04/05 14:05:42;;;;;;;8.82;3.17;;;;;;;;;;5046397;28;20143;-49
2022/04/05 14:08:08;;;;;;;6.22;2.38;;;;;;;;;;5045944;28;20113;-53
2022/04/05 14:10:34;;;;;;;5.65;2.15;;;;;;;;;;5046227;28;20483;-53
2022/04/05 14:13:00;;;;;;;8.27;2.97;;;;;;;;;;5045954;28;20650;-53
2022/04/05 14:15:26;;;;;;;5.95;2.30;;;;;;;;;;5046622;28;20029;-51
2022/04/05 14:17:52;;;;;;;5.38;2.15;;;;;;;;;;5046812;28;20033;-53
2022/04/05 14:20:18;;;;;;;4.38;2.22;;;;;;;;;;5046347;28;20898;-52
2022/04/05 14:22:44;;;;;;;4.78;2.03;;;;;;;;;;5046598;28;20472;-52
2022/04/05 14:25:10;;;;;;;5.15;1.90;;;;;;;;;;5047092;28;20029;-54
2022/04/05 14:27:36;;;;;;;6.57;2.10;;;;;;;;;;5047548;28;20044;-54
2022/04/05 14:30:02;;;;;;;5.75;1.98;;;;;;;;;;5047423;28;20528;-53
2022/04/05 14:32:29;;;;;;;4.82;1.95;;;;;;;;;;5047675;28;20029;-53
2022/04/05 14:34:55;;;;;;;5.82;1.95;;;;;;;;;;5047800;28;20052;-52
2022/04/05 14:37:21;;;;;;;4.18;1.65;;;;;;;;;;5047245;28;20395;-53
2022/04/05 14:39:48;;;;;;;5.35;1.77;;;;;;;;;;5047749;28;20032;-54
2022/04/05 14:42:14;;;;;;;8.18;1.92;;;;;;;;;;5047742;28;20094;-50
2022/04/05 14:44:39;;;;;;;4.75;2.63;;;;;;;;;;5047009;28;20037;-49